Terminal Aerodrome Forecast
Issued by NWS

Home | Current Version | Previous Version | Text Only | Print | Product List | Glossary On
Versions: 1 2 3 4 5 6 7 8 9 10 11 12 13 14 15 16 17 18 19 20
000
FTUS45 KVEF 021120
TAFVGT
TAF
KVGT 021120Z 0212/0312 VRB06KT P6SM VCTS FEW060 SCT080 OVC110CB
     FM021500 VRB10G20KT P6SM TSRA SCT080CB BKN120
     FM021900 16008KT P6SM FEW120 SCT150=

USA.gov is the U.S. government's official web portal to all federal, state and local government web resources and services.